sensor_id;sensor_type;location;lat;lon;timestamp;pressure;altitude;pressure_sealevel;temperature;humidity
62600;BME280;48671;48.922;2.346;2024-03-23T00:55:29;101327.84;;;11.93;64.04
62600;BME280;48671;48.922;2.346;2024-03-23T00:57:54;101340.69;;;11.99;64.12
62600;BME280;48671;48.922;2.346;2024-03-23T01:00:20;101276.75;;;11.62;64.38
62600;BME280;48671;48.922;2.346;2024-03-23T01:02:45;101337.94;;;12.04;64.35
62600;BME280;48671;48.922;2.346;2024-03-23T01:05:11;101339.66;;;12.03;63.84
62600;BME280;48671;48.922;2.346;2024-03-23T01:07:36;101318.25;;;11.95;64.08
62600;BME280;48671;48.922;2.346;2024-03-23T01:10:02;101346.53;;;12.06;64.08
62600;BME280;48671;48.922;2.346;2024-03-23T01:12:27;101325.00;;;12.01;64.31
62600;BME280;48671;48.922;2.346;2024-03-23T01:14:52;101323.56;;;11.92;64.32
62600;BME280;48671;48.922;2.346;2024-03-23T01:17:18;101322.00;;;11.86;64.01
62600;BME280;48671;48.922;2.346;2024-03-23T01:19:43;101310.97;;;11.78;63.87
62600;BME280;48671;48.922;2.346;2024-03-23T01:22:08;101324.97;;;11.76;64.85
62600;BME280;48671;48.922;2.346;2024-03-23T01:24:35;101334.25;;;11.83;65.00
62600;BME280;48671;48.922;2.346;2024-03-23T01:27:01;101335.88;;;11.87;64.12
62600;BME280;48671;48.922;2.346;2024-03-23T01:29:26;101324.25;;;11.70;64.63
62600;BME280;48671;48.922;2.346;2024-03-23T01:31:51;101314.09;;;11.63;64.22
62600;BME280;48671;48.922;2.346;2024-03-23T01:34:16;101318.38;;;11.64;64.63
62600;BME280;48671;48.922;2.346;2024-03-23T01:36:42;101334.69;;;11.70;64.94
62600;BME280;48671;48.922;2.346;2024-03-23T01:39:08;101308.94;;;11.61;65.54
62600;BME280;48671;48.922;2.346;2024-03-23T01:41:35;101331.22;;;11.70;64.93
62600;BME280;48671;48.922;2.346;2024-03-23T01:44:05;101333.81;;;11.70;65.03
62600;BME280;48671;48.922;2.346;2024-03-23T01:46:31;101338.19;;;11.69;65.60
62600;BME280;48671;48.922;2.346;2024-03-23T01:48:56;101327.03;;;11.66;65.04
62600;BME280;48671;48.922;2.346;2024-03-23T01:51:22;101298.09;;;11.47;64.98
62600;BME280;48671;48.922;2.346;2024-03-23T01:53:49;101340.88;;;11.68;65.16
62600;BME280;48671;48.922;2.346;2024-03-23T01:56:14;101340.91;;;11.66;64.85
62600;BME280;48671;48.922;2.346;2024-03-23T01:58:39;101302.53;;;11.45;65.06
62600;BME280;48671;48.922;2.346;2024-03-23T02:01:05;101263.50;;;11.17;64.95
62600;BME280;48671;48.922;2.346;2024-03-23T02:03:30;101349.78;;;11.61;65.43
62600;BME280;48671;48.922;2.346;2024-03-23T02:05:56;101321.56;;;11.47;64.94
62600;BME280;48671;48.922;2.346;2024-03-23T02:08:23;101328.41;;;11.51;64.99
62600;BME280;48671;48.922;2.346;2024-03-23T02:10:49;101338.81;;;11.51;65.01
62600;BME280;48671;48.922;2.346;2024-03-23T02:13:16;101318.59;;;11.31;65.40
62600;BME280;48671;48.922;2.346;2024-03-23T02:15:41;101339.75;;;11.48;64.85
62600;BME280;48671;48.922;2.346;2024-03-23T02:18:08;101347.31;;;11.56;65.08
62600;BME280;48671;48.922;2.346;2024-03-23T02:20:37;101320.31;;;11.32;65.27
62600;BME280;48671;48.922;2.346;2024-03-23T02:23:03;101353.84;;;11.43;65.36
62600;BME280;48671;48.922;2.346;2024-03-23T02:25:31;101355.78;;;11.36;64.48
62600;BME280;48671;48.922;2.346;2024-03-23T02:27:56;101343.97;;;11.24;63.96
62600;BME280;48671;48.922;2.346;2024-03-23T02:30:24;101351.78;;;11.26;64.00
62600;BME280;48671;48.922;2.346;2024-03-23T02:32:49;101349.25;;;11.23;64.42
62600;BME280;48671;48.922;2.346;2024-03-23T02:35:14;101337.50;;;11.10;64.24
62600;BME280;48671;48.922;2.346;2024-03-23T02:37:40;101355.41;;;11.20;63.56
62600;BME280;48671;48.922;2.346;2024-03-23T02:40:05;101322.41;;;10.93;63.55
62600;BME280;48671;48.922;2.346;2024-03-23T02:42:31;101314.69;;;10.90;64.03
62600;BME280;48671;48.922;2.346;2024-03-23T02:44:58;101357.44;;;11.11;64.24
62600;BME280;48671;48.922;2.346;2024-03-23T02:47:24;101349.97;;;11.00;64.15
62600;BME280;48671;48.922;2.346;2024-03-23T02:49:49;101358.38;;;11.08;63.71
62600;BME280;48671;48.922;2.346;2024-03-23T02:52:14;101340.66;;;10.91;63.94
62600;BME280;48671;48.922;2.346;2024-03-23T02:54:40;101368.03;;;11.05;63.79
62600;BME280;48671;48.922;2.346;2024-03-23T02:57:07;101348.34;;;10.96;63.94
62600;BME280;48671;48.922;2.346;2024-03-23T02:59:32;101341.72;;;10.86;63.80
62600;BME280;48671;48.922;2.346;2024-03-23T03:01:58;101354.78;;;10.84;63.67
62600;BME280;48671;48.922;2.346;2024-03-23T03:04:25;101356.75;;;10.76;63.24
62600;BME280;48671;48.922;2.346;2024-03-23T03:06:50;101383.38;;;10.86;63.60
62600;BME280;48671;48.922;2.346;2024-03-23T03:09:15;101376.84;;;10.71;63.71
62600;BME280;48671;48.922;2.346;2024-03-23T03:11:41;101361.47;;;10.63;64.04
62600;BME280;48671;48.922;2.346;2024-03-23T03:14:06;101366.59;;;10.66;64.15
62600;BME280;48671;48.922;2.346;2024-03-23T03:16:33;101384.66;;;10.71;63.31
62600;BME280;48671;48.922;2.346;2024-03-23T03:18:58;101332.59;;;10.41;63.45
62600;BME280;48671;48.922;2.346;2024-03-23T03:21:23;101340.34;;;10.43;63.24
62600;BME280;48671;48.922;2.346;2024-03-23T03:23:49;101362.78;;;10.47;63.85
62600;BME280;48671;48.922;2.346;2024-03-23T03:26:18;101376.56;;;10.50;63.62
62600;BME280;48671;48.922;2.346;2024-03-23T03:28:43;101387.69;;;10.55;64.14
62600;BME280;48671;48.922;2.346;2024-03-23T03:31:14;101394.63;;;10.57;63.36
62600;BME280;48671;48.922;2.346;2024-03-23T03:33:40;101377.59;;;10.45;63.54
62600;BME280;48671;48.922;2.346;2024-03-23T03:36:05;101369.16;;;10.37;63.42
62600;BME280;48671;48.922;2.346;2024-03-23T03:38:31;101373.56;;;10.33;63.79
62600;BME280;48671;48.922;2.346;2024-03-23T03:40:56;101395.78;;;10.45;63.23
62600;BME280;48671;48.922;2.346;2024-03-23T03:43:24;101384.69;;;10.38;62.98
62600;BME280;48671;48.922;2.346;2024-03-23T03:45:56;101397.53;;;10.44;62.87
62600;BME280;48671;48.922;2.346;2024-03-23T03:48:22;101402.97;;;10.37;62.76
62600;BME280;48671;48.922;2.346;2024-03-23T03:50:47;101413.38;;;10.37;63.09
62600;BME280;48671;48.922;2.346;2024-03-23T03:53:13;101407.59;;;10.24;62.81
62600;BME280;48671;48.922;2.346;2024-03-23T03:55:38;101425.63;;;10.31;62.68
62600;BME280;48671;48.922;2.346;2024-03-23T03:58:04;101402.66;;;10.13;62.49
62600;BME280;48671;48.922;2.346;2024-03-23T04:00:31;101410.59;;;10.08;62.83
62600;BME280;48671;48.922;2.346;2024-03-23T04:02:57;101423.53;;;10.10;62.91
62600;BME280;48671;48.922;2.346;2024-03-23T04:05:23;101422.69;;;10.09;62.72
62600;BME280;48671;48.922;2.346;2024-03-23T04:07:48;101406.38;;;10.03;62.70
62600;BME280;48671;48.922;2.346;2024-03-23T04:10:14;101435.66;;;10.11;62.93
62600;BME280;48671;48.922;2.346;2024-03-23T04:12:40;101430.41;;;10.13;62.67
62600;BME280;48671;48.922;2.346;2024-03-23T04:15:06;101417.72;;;10.00;62.82
62600;BME280;48671;48.922;2.346;2024-03-23T04:17:32;101419.44;;;10.01;62.98
62600;BME280;48671;48.922;2.346;2024-03-23T04:20:00;101438.38;;;10.06;62.55
62600;BME280;48671;48.922;2.346;2024-03-23T04:22:25;101389.75;;;9.76;63.40
62600;BME280;48671;48.922;2.346;2024-03-23T04:24:57;101444.41;;;10.07;63.31
62600;BME280;48671;48.922;2.346;2024-03-23T04:27:23;101442.78;;;10.04;62.96
62600;BME280;48671;48.922;2.346;2024-03-23T04:29:52;101442.78;;;10.03;63.48
62600;BME280;48671;48.922;2.346;2024-03-23T04:32:20;101422.25;;;9.92;62.96
62600;BME280;48671;48.922;2.346;2024-03-23T04:34:45;101408.50;;;9.89;62.82
62600;BME280;48671;48.922;2.346;2024-03-23T04:37:11;101443.81;;;9.97;63.12
62600;BME280;48671;48.922;2.346;2024-03-23T04:39:37;101432.03;;;9.82;63.42
62600;BME280;48671;48.922;2.346;2024-03-23T04:42:03;101438.06;;;9.83;63.09
62600;BME280;48671;48.922;2.346;2024-03-23T04:44:29;101447.50;;;9.87;63.86
62600;BME280;48671;48.922;2.346;2024-03-23T04:46:54;101457.75;;;9.93;63.85
62600;BME280;48671;48.922;2.346;2024-03-23T04:49:20;101459.56;;;9.91;63.35
62600;BME280;48671;48.922;2.346;2024-03-23T04:51:45;101426.53;;;9.57;63.07
62600;BME280;48671;48.922;2.346;2024-03-23T04:54:14;101434.53;;;9.50;63.04
62600;BME280;48671;48.922;2.346;2024-03-23T04:56:40;101440.69;;;9.46;63.92
62600;BME280;48671;48.922;2.346;2024-03-23T04:59:05;101473.22;;;9.62;63.44
62600;BME280;48671;48.922;2.346;2024-03-23T05:01:34;101436.53;;;9.37;63.70
62600;BME280;48671;48.922;2.346;2024-03-23T05:03:59;101479.34;;;9.58;64.31
62600;BME280;48671;48.922;2.346;2024-03-23T05:06:25;101479.53;;;9.50;63.35
62600;BME280;48671;48.922;2.346;2024-03-23T05:08:51;101475.97;;;9.54;63.72
62600;BME280;48671;48.922;2.346;2024-03-23T05:11:17;101454.84;;;9.31;63.86
62600;BME280;48671;48.922;2.346;2024-03-23T05:13:42;101483.94;;;9.47;63.96
62600;BME280;48671;48.922;2.346;2024-03-23T05:16:08;101472.00;;;9.40;63.61
62600;BME280;48671;48.922;2.346;2024-03-23T05:18:34;101488.25;;;9.48;63.76
62600;BME280;48671;48.922;2.346;2024-03-23T05:20:59;101477.97;;;9.43;63.65
62600;BME280;48671;48.922;2.346;2024-03-23T05:23:25;101496.09;;;9.46;63.70
62600;BME280;48671;48.922;2.346;2024-03-23T05:25:51;101500.56;;;9.40;63.61
62600;BME280;48671;48.922;2.346;2024-03-23T05:28:20;101482.63;;;9.27;63.70
62600;BME280;48671;48.922;2.346;2024-03-23T05:30:53;101500.75;;;9.30;63.05
62600;BME280;48671;48.922;2.346;2024-03-23T05:33:21;101472.75;;;9.03;63.01
62600;BME280;48671;48.922;2.346;2024-03-23T05:35:47;101492.34;;;9.18;62.94
62600;BME280;48671;48.922;2.346;2024-03-23T05:38:13;101497.72;;;9.10;63.18
62600;BME280;48671;48.922;2.346;2024-03-23T05:40:38;101504.53;;;9.16;63.25
62600;BME280;48671;48.922;2.346;2024-03-23T05:43:08;101490.84;;;9.07;63.55
62600;BME280;48671;48.922;2.346;2024-03-23T05:45:34;101488.34;;;9.03;63.16
62600;BME280;48671;48.922;2.346;2024-03-23T05:47:59;101494.31;;;9.06;63.11
62600;BME280;48671;48.922;2.346;2024-03-23T05:50:25;101480.63;;;9.00;62.85
62600;BME280;48671;48.922;2.346;2024-03-23T05:52:50;101493.59;;;9.00;62.66
62600;BME280;48671;48.922;2.346;2024-03-23T05:55:16;101505.44;;;9.11;62.78
62600;BME280;48671;48.922;2.346;2024-03-23T05:57:41;101514.09;;;9.12;62.95
62600;BME280;48671;48.922;2.346;2024-03-23T06:00:08;101503.03;;;9.02;62.63
62600;BME280;48671;48.922;2.346;2024-03-23T06:02:44;101498.13;;;8.88;63.11
62600;BME280;48671;48.922;2.346;2024-03-23T06:05:10;101520.44;;;8.97;63.07
62600;BME280;48671;48.922;2.346;2024-03-23T06:07:36;101532.31;;;9.09;62.92
62600;BME280;48671;48.922;2.346;2024-03-23T06:10:01;101519.50;;;9.01;63.05
62600;BME280;48671;48.922;2.346;2024-03-23T06:12:26;101529.81;;;9.06;62.52
62600;BME280;48671;48.922;2.346;2024-03-23T06:14:52;101495.56;;;8.87;63.15
62600;BME280;48671;48.922;2.346;2024-03-23T06:17:17;101529.94;;;8.98;62.71
62600;BME280;48671;48.922;2.346;2024-03-23T06:19:43;101517.19;;;8.87;62.97
62600;BME280;48671;48.922;2.346;2024-03-23T06:22:08;101539.69;;;8.87;63.59
62600;BME280;48671;48.922;2.346;2024-03-23T06:24:33;101540.38;;;8.95;63.38
62600;BME280;48671;48.922;2.346;2024-03-23T06:26:59;101551.53;;;9.00;63.37
62600;BME280;48671;48.922;2.346;2024-03-23T06:29:24;101535.22;;;8.94;63.37
62600;BME280;48671;48.922;2.346;2024-03-23T06:31:56;101541.16;;;9.00;63.25
62600;BME280;48671;48.922;2.346;2024-03-23T06:34:21;101518.09;;;8.85;63.78
62600;BME280;48671;48.922;2.346;2024-03-23T06:36:48;101534.34;;;8.95;64.15
62600;BME280;48671;48.922;2.346;2024-03-23T06:39:14;101560.91;;;9.07;63.88
62600;BME280;48671;48.922;2.346;2024-03-23T06:41:44;101566.16;;;9.06;63.79
62600;BME280;48671;48.922;2.346;2024-03-23T06:44:16;101485.72;;;8.58;63.49
62600;BME280;48671;48.922;2.346;2024-03-23T06:46:41;101528.56;;;8.79;63.98
62600;BME280;48671;48.922;2.346;2024-03-23T06:49:07;101570.53;;;9.02;63.44
62600;BME280;48671;48.922;2.346;2024-03-23T06:51:32;101571.47;;;9.00;64.11
62600;BME280;48671;48.922;2.346;2024-03-23T06:53:58;101562.84;;;8.98;64.29
62600;BME280;48671;48.922;2.346;2024-03-23T06:56:23;101563.72;;;8.97;64.82
62600;BME280;48671;48.922;2.346;2024-03-23T06:58:48;101575.72;;;9.02;64.00
62600;BME280;48671;48.922;2.346;2024-03-23T07:01:13;101550.97;;;8.84;64.16
62600;BME280;48671;48.922;2.346;2024-03-23T07:03:39;101565.53;;;8.91;64.48
62600;BME280;48671;48.922;2.346;2024-03-23T07:06:04;101586.00;;;9.08;64.17
62600;BME280;48671;48.922;2.346;2024-03-23T07:08:29;101560.97;;;9.06;63.73
62600;BME280;48671;48.922;2.346;2024-03-23T07:10:55;101553.34;;;8.95;61.30
62600;BME280;48671;48.922;2.346;2024-03-23T07:13:20;101550.59;;;9.04;61.17
62600;BME280;48671;48.922;2.346;2024-03-23T07:15:51;101579.84;;;9.14;61.09
62600;BME280;48671;48.922;2.346;2024-03-23T07:18:17;101562.63;;;9.10;60.40
62600;BME280;48671;48.922;2.346;2024-03-23T07:20:42;101570.34;;;9.11;60.87
62600;BME280;48671;48.922;2.346;2024-03-23T07:23:07;101585.75;;;9.21;60.86
62600;BME280;48671;48.922;2.346;2024-03-23T07:25:32;101565.22;;;9.10;59.74
62600;BME280;48671;48.922;2.346;2024-03-23T07:27:58;101582.47;;;9.11;60.34
62600;BME280;48671;48.922;2.346;2024-03-23T07:30:23;101588.53;;;9.13;60.19
62600;BME280;48671;48.922;2.346;2024-03-23T07:32:48;101579.94;;;9.08;61.00
62600;BME280;48671;48.922;2.346;2024-03-23T07:35:14;101555.63;;;9.12;60.99
62600;BME280;48671;48.922;2.346;2024-03-23T07:37:39;101582.03;;;9.34;60.70
62600;BME280;48671;48.922;2.346;2024-03-23T07:40:05;101583.84;;;9.30;60.54
62600;BME280;48671;48.922;2.346;2024-03-23T07:42:31;101554.66;;;9.19;60.61
62600;BME280;48671;48.922;2.346;2024-03-23T07:44:56;101573.94;;;9.49;60.89
62600;BME280;48671;48.922;2.346;2024-03-23T07:47:22;101578.72;;;9.69;60.62
62600;BME280;48671;48.922;2.346;2024-03-23T07:49:47;101539.50;;;9.81;60.60
62600;BME280;48671;48.922;2.346;2024-03-23T07:52:13;101572.69;;;10.45;59.70
62600;BME280;48671;48.922;2.346;2024-03-23T07:54:38;101565.34;;;10.95;58.43
62600;BME280;48671;48.922;2.346;2024-03-23T07:57:03;101547.72;;;11.36;55.88
62600;BME280;48671;48.922;2.346;2024-03-23T07:59:29;101539.56;;;11.78;56.00
62600;BME280;48671;48.922;2.346;2024-03-23T08:01:57;101557.16;;;12.27;53.72
62600;BME280;48671;48.922;2.346;2024-03-23T08:04:22;101564.59;;;12.64;53.59
62600;BME280;48671;48.922;2.346;2024-03-23T08:06:47;101565.03;;;12.77;54.51
62600;BME280;48671;48.922;2.346;2024-03-23T08:09:13;101559.91;;;12.49;52.51
62600;BME280;48671;48.922;2.346;2024-03-23T08:11:38;101546.63;;;12.02;54.13
62600;BME280;48671;48.922;2.346;2024-03-23T08:14:04;101550.09;;;12.03;53.85
62600;BME280;48671;48.922;2.346;2024-03-23T08:16:29;101589.72;;;12.42;54.36
62600;BME280;48671;48.922;2.346;2024-03-23T08:18:55;101548.38;;;12.56;52.81
62600;BME280;48671;48.922;2.346;2024-03-23T08:21:23;101577.31;;;12.49;53.35
62600;BME280;48671;48.922;2.346;2024-03-23T08:23:50;101583.91;;;12.34;53.39
62600;BME280;48671;48.922;2.346;2024-03-23T08:26:16;101593.72;;;12.26;53.64
62600;BME280;48671;48.922;2.346;2024-03-23T08:28:43;101581.94;;;12.40;52.44
62600;BME280;48671;48.922;2.346;2024-03-23T08:31:09;101596.31;;;12.26;53.58
62600;BME280;48671;48.922;2.346;2024-03-23T08:33:35;101571.00;;;12.01;54.25
62600;BME280;48671;48.922;2.346;2024-03-23T08:38:27;101590.97;;;11.72;55.11
62600;BME280;48671;48.922;2.346;2024-03-23T08:43:28;101621.16;;;11.50;55.94
62600;BME280;48671;48.922;2.346;2024-03-23T08:46:03;101619.78;;;11.04;57.73
62600;BME280;48671;48.922;2.346;2024-03-23T08:48:28;101611.16;;;10.69;59.24
62600;BME280;48671;48.922;2.346;2024-03-23T08:51:01;101619.75;;;10.36;58.56
62600;BME280;48671;48.922;2.346;2024-03-23T08:53:28;101579.94;;;9.93;58.54
62600;BME280;48671;48.922;2.346;2024-03-23T08:55:55;101591.41;;;9.84;58.92
62600;BME280;48671;48.922;2.346;2024-03-23T08:58:20;101589.78;;;9.79;59.76
62600;BME280;48671;48.922;2.346;2024-03-23T09:00:46;101588.28;;;9.67;61.12
62600;BME280;48671;48.922;2.346;2024-03-23T09:03:12;101587.31;;;9.73;60.93
62600;BME280;48671;48.922;2.346;2024-03-23T09:05:40;101591.84;;;9.65;61.50
62600;BME280;48671;48.922;2.346;2024-03-23T09:08:06;101595.97;;;9.73;61.68
62600;BME280;48671;48.922;2.346;2024-03-23T09:10:31;101585.13;;;9.95;61.94
62600;BME280;48671;48.922;2.346;2024-03-23T09:12:57;101598.66;;;10.48;62.59
62600;BME280;48671;48.922;2.346;2024-03-23T09:15:22;101584.59;;;10.89;62.02
62600;BME280;48671;48.922;2.346;2024-03-23T09:17:47;101571.22;;;11.34;60.91
62600;BME280;48671;48.922;2.346;2024-03-23T09:20:13;101583.97;;;11.75;58.33
62600;BME280;48671;48.922;2.346;2024-03-23T09:22:38;101572.44;;;11.82;59.15
62600;BME280;48671;48.922;2.346;2024-03-23T09:25:04;101581.47;;;12.00;58.66
62600;BME280;48671;48.922;2.346;2024-03-23T09:27:30;101571.47;;;11.86;58.03
62600;BME280;48671;48.922;2.346;2024-03-23T09:29:55;101566.25;;;11.86;57.19
62600;BME280;48671;48.922;2.346;2024-03-23T09:32:21;101564.78;;;11.77;55.37
62600;BME280;48671;48.922;2.346;2024-03-23T09:34:46;101558.78;;;11.44;57.79
62600;BME280;48671;48.922;2.346;2024-03-23T09:37:11;101578.22;;;11.32;58.28
62600;BME280;48671;48.922;2.346;2024-03-23T09:39:36;101561.66;;;11.04;59.80
62600;BME280;48671;48.922;2.346;2024-03-23T09:42:02;101596.56;;;10.96;58.72
62600;BME280;48671;48.922;2.346;2024-03-23T09:44:27;101561.94;;;10.59;58.39
62600;BME280;48671;48.922;2.346;2024-03-23T09:46:55;101581.06;;;10.58;59.68
62600;BME280;48671;48.922;2.346;2024-03-23T09:49:20;101592.03;;;10.70;59.83
62600;BME280;48671;48.922;2.346;2024-03-23T09:51:46;101584.75;;;10.83;59.75
62600;BME280;48671;48.922;2.346;2024-03-23T09:54:11;101549.94;;;10.87;58.91
62600;BME280;48671;48.922;2.346;2024-03-23T09:56:37;101556.44;;;11.04;58.45
62600;BME280;48671;48.922;2.346;2024-03-23T09:59:03;101557.41;;;11.31;58.39
62600;BME280;48671;48.922;2.346;2024-03-23T10:01:32;101564.38;;;11.61;59.29
62600;BME280;48671;48.922;2.346;2024-03-23T10:03:57;101550.28;;;11.97;63.67
62600;BME280;48671;48.922;2.346;2024-03-23T10:06:23;101544.47;;;12.16;54.44
62600;BME280;48671;48.922;2.346;2024-03-23T10:08:52;101544.19;;;12.24;56.47
62600;BME280;48671;48.922;2.346;2024-03-23T10:11:18;101560.91;;;12.45;56.05
62600;BME280;48671;48.922;2.346;2024-03-23T10:13:44;101553.53;;;12.58;55.70
62600;BME280;48671;48.922;2.346;2024-03-23T10:16:12;101544.94;;;12.54;55.16
62600;BME280;48671;48.922;2.346;2024-03-23T10:18:38;101550.13;;;12.56;55.44
62600;BME280;48671;48.922;2.346;2024-03-23T10:21:10;101545.88;;;12.52;54.52
62600;BME280;48671;48.922;2.346;2024-03-23T10:23:40;101539.34;;;12.40;52.46
62600;BME280;48671;48.922;2.346;2024-03-23T10:26:23;101532.25;;;12.44;54.16
62600;BME280;48671;48.922;2.346;2024-03-23T10:28:54;101543.38;;;12.75;55.71
62600;BME280;48671;48.922;2.346;2024-03-23T10:31:22;101536.28;;;12.79;53.74
62600;BME280;48671;48.922;2.346;2024-03-23T10:33:48;101532.53;;;12.86;53.94
62600;BME280;48671;48.922;2.346;2024-03-23T10:36:14;101532.59;;;12.84;52.11
62600;BME280;48671;48.922;2.346;2024-03-23T10:38:43;101501.06;;;12.65;52.93
62600;BME280;48671;48.922;2.346;2024-03-23T10:41:09;101513.34;;;12.62;53.01
62600;BME280;48671;48.922;2.346;2024-03-23T10:43:36;101522.28;;;12.55;52.57
62600;BME280;48671;48.922;2.346;2024-03-23T10:46:02;101500.09;;;12.68;52.68
62600;BME280;48671;48.922;2.346;2024-03-23T10:48:27;101500.69;;;12.76;51.09
62600;BME280;48671;48.922;2.346;2024-03-23T10:50:53;101491.72;;;12.58;51.25
62600;BME280;48671;48.922;2.346;2024-03-23T10:53:21;101474.03;;;12.41;53.77
62600;BME280;48671;48.922;2.346;2024-03-23T10:55:48;101467.06;;;12.15;51.97
62600;BME280;48671;48.922;2.346;2024-03-23T10:58:14;101453.09;;;12.18;52.66
62600;BME280;48671;48.922;2.346;2024-03-23T11:00:41;101444.00;;;12.30;53.54
62600;BME280;48671;48.922;2.346;2024-03-23T11:03:32;101472.09;;;12.97;53.52
62600;BME280;48671;48.922;2.346;2024-03-23T11:05:59;101452.09;;;12.96;50.57
62600;BME280;48671;48.922;2.346;2024-03-23T11:08:38;101455.56;;;13.20;50.44
62600;BME280;48671;48.922;2.346;2024-03-23T11:11:14;101465.09;;;13.21;50.73
62600;BME280;48671;48.922;2.346;2024-03-23T11:13:39;101429.94;;;13.06;50.74
62600;BME280;48671;48.922;2.346;2024-03-23T11:16:15;101449.28;;;13.02;49.45
62600;BME280;48671;48.922;2.346;2024-03-23T11:18:41;101457.66;;;12.86;49.81
62600;BME280;48671;48.922;2.346;2024-03-23T11:21:08;101458.91;;;13.00;50.40
62600;BME280;48671;48.922;2.346;2024-03-23T11:23:33;101457.09;;;13.02;48.98
62600;BME280;48671;48.922;2.346;2024-03-23T11:25:58;101464.00;;;13.28;49.95
62600;BME280;48671;48.922;2.346;2024-03-23T11:28:24;101448.22;;;13.31;49.79
62600;BME280;48671;48.922;2.346;2024-03-23T11:30:50;101447.78;;;13.18;46.54
62600;BME280;48671;48.922;2.346;2024-03-23T11:33:15;101437.06;;;13.02;47.57
62600;BME280;48671;48.922;2.346;2024-03-23T11:35:41;101431.34;;;12.91;46.83
62600;BME280;48671;48.922;2.346;2024-03-23T11:38:08;101419.03;;;12.71;47.89
62600;BME280;48671;48.922;2.346;2024-03-23T11:40:37;101428.81;;;12.66;46.99
62600;BME280;48671;48.922;2.346;2024-03-23T11:43:06;101419.53;;;12.57;48.13
62600;BME280;48671;48.922;2.346;2024-03-23T11:45:36;101421.59;;;12.96;47.30
62600;BME280;48671;48.922;2.346;2024-03-23T11:48:06;101417.69;;;13.31;45.96
62600;BME280;48671;48.922;2.346;2024-03-23T11:50:32;101413.97;;;13.81;44.57
62600;BME280;48671;48.922;2.346;2024-03-23T11:53:15;101397.94;;;14.09;45.82
62600;BME280;48671;48.922;2.346;2024-03-23T11:55:42;101393.47;;;14.13;43.19
62600;BME280;48671;48.922;2.346;2024-03-23T11:58:08;101388.03;;;14.17;42.22
62600;BME280;48671;48.922;2.346;2024-03-23T12:00:34;101386.47;;;14.13;42.47
62600;BME280;48671;48.922;2.346;2024-03-23T12:03:01;101379.44;;;14.14;40.68
62600;BME280;48671;48.922;2.346;2024-03-23T12:05:27;101375.84;;;14.16;42.17
62600;BME280;48671;48.922;2.346;2024-03-23T12:07:52;101365.06;;;14.03;43.04
62600;BME280;48671;48.922;2.346;2024-03-23T12:10:19;101380.38;;;14.13;42.08
62600;BME280;48671;48.922;2.346;2024-03-23T12:12:45;101357.28;;;14.22;40.70
62600;BME280;48671;48.922;2.346;2024-03-23T12:15:10;101352.91;;;14.42;40.77
62600;BME280;48671;48.922;2.346;2024-03-23T12:17:38;101360.03;;;14.38;40.70
62600;BME280;48671;48.922;2.346;2024-03-23T12:20:04;101339.84;;;14.21;38.96
62600;BME280;48671;48.922;2.346;2024-03-23T12:22:29;101368.28;;;14.10;40.38
62600;BME280;48671;48.922;2.346;2024-03-23T12:24:56;101359.47;;;14.32;41.07
62600;BME280;48671;48.922;2.346;2024-03-23T12:27:22;101347.16;;;14.54;41.61
62600;BME280;48671;48.922;2.346;2024-03-23T12:29:47;101354.31;;;14.50;40.44
62600;BME280;48671;48.922;2.346;2024-03-23T12:32:13;101347.72;;;14.61;39.66
62600;BME280;48671;48.922;2.346;2024-03-23T12:34:39;101346.03;;;14.97;39.99
62600;BME280;48671;48.922;2.346;2024-03-23T12:37:04;101353.16;;;15.32;38.73
62600;BME280;48671;48.922;2.346;2024-03-23T12:39:31;101355.44;;;15.57;37.70
62600;BME280;48671;48.922;2.346;2024-03-23T12:41:57;101331.91;;;15.73;39.00
62600;BME280;48671;48.922;2.346;2024-03-23T12:44:22;101325.75;;;15.74;35.96
62600;BME280;48671;48.922;2.346;2024-03-23T12:46:47;101307.72;;;15.66;37.10
62600;BME280;48671;48.922;2.346;2024-03-23T12:49:13;101339.97;;;15.70;35.87
62600;BME280;48671;48.922;2.346;2024-03-23T12:51:38;101311.66;;;15.76;37.24
62600;BME280;48671;48.922;2.346;2024-03-23T12:54:04;101315.50;;;15.86;35.31
62600;BME280;48671;48.922;2.346;2024-03-23T12:56:29;101307.28;;;16.10;34.04
62600;BME280;48671;48.922;2.346;2024-03-23T12:58:55;101281.75;;;16.12;33.74
62600;BME280;48671;48.922;2.346;2024-03-23T13:01:23;101300.28;;;16.26;34.08
62600;BME280;48671;48.922;2.346;2024-03-23T13:03:49;101300.91;;;16.14;34.44
62600;BME280;48671;48.922;2.346;2024-03-23T13:06:15;101303.53;;;15.81;34.65
62600;BME280;48671;48.922;2.346;2024-03-23T13:08:40;101283.69;;;15.40;34.97
62600;BME280;48671;48.922;2.346;2024-03-23T13:11:07;101287.63;;;14.95;36.88
62600;BME280;48671;48.922;2.346;2024-03-23T13:13:38;101309.53;;;14.75;39.55
62600;BME280;48671;48.922;2.346;2024-03-23T13:16:04;101328.91;;;14.52;40.17
62600;BME280;48671;48.922;2.346;2024-03-23T13:18:30;101322.25;;;14.25;41.89
62600;BME280;48671;48.922;2.346;2024-03-23T13:20:56;101306.38;;;13.89;44.33
62600;BME280;48671;48.922;2.346;2024-03-23T13:23:21;101319.50;;;13.67;45.74
62600;BME280;48671;48.922;2.346;2024-03-23T13:25:54;101302.13;;;13.45;44.50
62600;BME280;48671;48.922;2.346;2024-03-23T13:28:20;101320.28;;;13.48;46.04
62600;BME280;48671;48.922;2.346;2024-03-23T13:30:53;101309.94;;;13.67;47.79
62600;BME280;48671;48.922;2.346;2024-03-23T13:33:18;101297.03;;;14.03;46.96
62600;BME280;48671;48.922;2.346;2024-03-23T13:35:54;101286.34;;;14.08;46.08
62600;BME280;48671;48.922;2.346;2024-03-23T13:38:23;101294.47;;;14.02;44.86
62600;BME280;48671;48.922;2.346;2024-03-23T13:40:53;101302.13;;;13.86;46.29
62600;BME280;48671;48.922;2.346;2024-03-23T13:43:18;101298.59;;;13.67;45.46
62600;BME280;48671;48.922;2.346;2024-03-23T13:45:44;101293.31;;;13.48;44.48
62600;BME280;48671;48.922;2.346;2024-03-23T13:48:10;101295.13;;;13.24;44.16